Time;durP1;ratioP1;P1;durP2;ratioP2;P2;SDS_P1;SDS_P2;PMS_P1;PMS_P2;Temp;Humidity;BMP_temperature;BMP_pressure;BME280_temperature;BME280_humidity;BME280_pressure;Samples;Min_cycle;Max_cycle;Signal;HPM_P1;HPM_P2
2022/11/24 00:01:09;;;;;;;;;;;;;;;17.96;64.07;100060.58;2265838;78;50635;-76
2022/11/24 00:04:11;;;;;;;;;;;;;;;17.95;64.13;100070.95;2265582;78;50380;-76
2022/11/24 00:07:12;;;;;;;;;;;;;;;17.94;64.80;100067.14;2210749;78;51623;-77
2022/11/24 00:10:14;;;;;;;;;;;;;;;17.90;64.66;100069.36;2265009;78;51444;-76
2022/11/24 00:13:16;;;;;;;;;;;;;;;17.89;64.55;100062.36;2258358;78;50673;-75
2022/11/24 00:16:19;;;;;;;;;;;;;;;17.97;64.44;100068.09;2223258;79;50772;-77
2022/11/24 00:19:20;;;;;;;;;;;;;;;18.00;64.28;100071.20;2223038;79;52497;-76
2022/11/24 00:22:22;;;;;;;;;;;;;;;18.05;64.10;100065.27;2254927;79;50304;-76
2022/11/24 00:25:23;;;;;;;;;;;;;;;18.10;63.74;100070.05;2223055;79;50311;-76
2022/11/24 00:28:25;;;;;;;;;;;;;;;18.09;63.57;100073.77;2254907;79;50448;-76
2022/11/24 00:31:30;;;;;;;;;;;;;;;18.09;63.63;100071.09;2223266;79;51210;-74
2022/11/24 00:34:32;;;;;;;;;;;;;;;18.06;63.73;100071.78;2223017;79;51534;-75
2022/11/24 00:37:34;;;;;;;;;;;;;;;18.03;63.86;100072.17;2223243;79;50362;-75
2022/11/24 00:40:36;;;;;;;;;;;;;;;18.01;64.04;100075.55;2254907;79;50428;-76
2022/11/24 00:43:37;;;;;;;;;;;;;;;17.99;64.28;100068.22;2222881;79;51054;-76
2022/11/24 00:46:39;;;;;;;;;;;;;;;17.96;64.40;100071.28;2258901;77;50430;-74
2022/11/24 00:49:40;;;;;;;;;;;;;;;17.95;64.86;100074.14;2188954;80;51435;-76
2022/11/24 00:52:42;;;;;;;;;;;;;;;17.91;64.98;100080.92;2185617;80;51462;-76
2022/11/24 00:55:43;;;;;;;;;;;;;;;17.88;64.86;100072.77;2185264;80;51149;-76
2022/11/24 00:58:45;;;;;;;;;;;;;;;17.94;64.75;100065.29;2185398;80;50253;-77
2022/11/24 01:01:47;;;;;;;;;;;;;;;17.99;64.54;100066.88;2185479;80;50699;-77
2022/11/24 01:04:48;;;;;;;;;;;;;;;18.06;64.46;100065.61;2216073;80;50788;-77
2022/11/24 01:07:50;;;;;;;;;;;;;;;18.10;64.08;100059.34;2185301;80;52414;-77
2022/11/24 01:10:51;;;;;;;;;;;;;;;18.12;63.94;100068.84;2216300;80;51501;-77
2022/11/24 01:13:55;;;;;;;;;;;;;;;18.09;63.99;100066.55;2250491;79;51402;-77
2022/11/24 01:16:56;;;;;;;;;;;;;;;18.07;63.88;100065.91;2258479;78;51585;-77
2022/11/24 01:19:58;;;;;;;;;;;;;;;18.05;64.19;100073.30;2209525;80;51821;-77
2022/11/24 01:22:59;;;;;;;;;;;;;;;18.02;64.32;100090.58;2187402;80;50179;-77
2022/11/24 01:26:03;;;;;;;;;;;;;;;18.01;64.44;100094.29;2187002;80;50418;-77
2022/11/24 01:29:04;;;;;;;;;;;;;;;17.99;64.44;100101.68;2218209;80;50705;-76
2022/11/24 01:32:06;;;;;;;;;;;;;;;17.98;64.72;100092.00;2210930;79;51641;-76
2022/11/24 01:35:08;;;;;;;;;;;;;;;17.95;65.19;100089.69;2217855;80;51517;-77
2022/11/24 01:38:10;;;;;;;;;;;;;;;17.93;65.06;100087.73;2218161;80;50808;-77
2022/11/24 01:41:15;;;;;;;;;;;;;;;17.95;64.84;100086.19;2218100;80;50815;-76
2022/11/24 01:44:22;;;;;;;;;;;;;;;18.00;64.77;100077.89;2210914;79;51177;-76
2022/11/24 01:47:33;;;;;;;;;;;;;;;18.06;64.64;100077.14;2252431;79;50831;-76
2022/11/24 01:50:35;;;;;;;;;;;;;;;18.10;64.39;100066.03;2255000;79;50344;-76
2022/11/24 01:53:36;;;;;;;;;;;;;;;18.09;64.33;100067.07;2222783;79;50318;-76
2022/11/24 01:56:39;;;;;;;;;;;;;;;18.08;64.35;100067.55;2222805;79;51709;-77
2022/11/24 01:59:40;;;;;;;;;;;;;;;18.06;64.42;100081.16;2254916;78;50421;-77
2022/11/24 02:02:42;;;;;;;;;;;;;;;18.03;64.51;100101.63;2254901;79;50237;-76
2022/11/24 02:05:45;;;;;;;;;;;;;;;18.01;64.55;100110.87;2254826;79;51492;-76
2022/11/24 02:08:48;;;;;;;;;;;;;;;17.99;64.63;100114.24;2232223;78;51736;-76
2022/11/24 02:11:50;;;;;;;;;;;;;;;17.97;64.87;100105.57;2246197;78;52549;-76
2022/11/24 02:14:52;;;;;;;;;;;;;;;17.91;65.48;100108.51;2274705;78;50300;-76
2022/11/24 02:17:53;;;;;;;;;;;;;;;17.90;65.46;100120.73;2255274;79;50643;-76
2022/11/24 02:20:55;;;;;;;;;;;;;;;17.87;65.37;100119.27;2198666;79;52498;-76
2022/11/24 02:24:04;;;;;;;;;;;;;;;17.91;65.16;100119.21;2255106;79;50508;-76
2022/11/24 02:27:06;;;;;;;;;;;;;;;17.99;65.09;100119.59;2255123;79;51579;-77
2022/11/24 02:30:07;;;;;;;;;;;;;;;18.03;64.80;100117.69;2255398;79;51288;-77
2022/11/24 02:33:09;;;;;;;;;;;;;;;18.09;64.57;100112.06;2198233;79;51500;-77
2022/11/24 02:36:11;;;;;;;;;;;;;;;18.09;64.34;100119.28;2255035;79;50419;-77
2022/11/24 02:39:13;;;;;;;;;;;;;;;18.09;64.27;100120.61;2255318;78;50269;-77
2022/11/24 02:42:14;;;;;;;;;;;;;;;18.08;64.33;100126.97;2261888;77;51475;-76
2022/11/24 02:45:16;;;;;;;;;;;;;;;18.04;64.60;100126.02;2258338;78;51448;-77
2022/11/24 02:48:17;;;;;;;;;;;;;;;18.04;64.67;100131.89;2257716;78;51421;-77
2022/11/24 02:51:19;;;;;;;;;;;;;;;18.02;64.67;100127.23;2255250;79;51421;-77
2022/11/24 02:54:21;;;;;;;;;;;;;;;17.98;64.83;100124.13;2255083;79;51433;-76
2022/11/24 02:57:22;;;;;;;;;;;;;;;17.95;65.12;100135.19;2223290;79;52375;-76
2022/11/24 03:00:24;;;;;;;;;;;;;;;17.91;65.52;100132.59;2223700;79;50262;-76
2022/11/24 03:03:26;;;;;;;;;;;;;;;17.88;65.42;100125.44;2223527;79;50426;-76
2022/11/24 03:06:27;;;;;;;;;;;;;;;17.92;65.34;100123.53;2255202;79;51542;-76
2022/11/24 03:09:29;;;;;;;;;;;;;;;17.97;65.13;100115.76;2223504;79;51192;-76
2022/11/24 03:12:31;;;;;;;;;;;;;;;18.02;64.97;100112.00;2223205;79;51477;-76
2022/11/24 03:15:32;;;;;;;;;;;;;;;18.06;64.63;100109.78;2257034;78;51421;-76
2022/11/24 03:18:34;;;;;;;;;;;;;;;18.08;64.43;100110.39;2256402;78;51546;-76
2022/11/24 03:21:36;;;;;;;;;;;;;;;18.04;64.60;100122.01;2198235;79;52323;-77
2022/11/24 03:24:37;;;;;;;;;;;;;;;18.03;64.63;100133.75;2223209;79;51446;-75
2022/11/24 03:27:39;;;;;;;;;;;;;;;18.01;64.68;100126.41;2255050;79;51475;-75
2022/11/24 03:30:40;;;;;;;;;;;;;;;18.00;64.73;100125.25;2223374;79;52137;-76
2022/11/24 03:33:42;;;;;;;;;;;;;;;17.98;64.89;100117.92;2223298;78;51644;-76
2022/11/24 03:36:44;;;;;;;;;;;;;;;17.94;65.05;100132.21;2255122;79;51369;-76
2022/11/24 03:39:45;;;;;;;;;;;;;;;17.92;65.54;100142.27;2223531;79;51549;-76
2022/11/24 03:42:47;;;;;;;;;;;;;;;17.88;65.64;100149.05;2227554;79;50256;-76
2022/11/24 03:45:49;;;;;;;;;;;;;;;17.87;65.49;100153.23;2248115;79;51846;-76
2022/11/24 03:48:50;;;;;;;;;;;;;;;17.92;65.39;100150.81;2255280;78;51651;-76
2022/11/24 03:51:52;;;;;;;;;;;;;;;18.00;65.21;100152.02;2223577;79;50282;-76
2022/11/24 03:54:53;;;;;;;;;;;;;;;18.03;64.98;100151.63;2226249;79;50274;-76
2022/11/24 03:57:55;;;;;;;;;;;;;;;18.06;64.78;100158.80;2226335;79;50865;-77
2022/11/24 04:00:56;;;;;;;;;;;;;;;18.08;64.55;100151.06;2255495;78;50671;-77
2022/11/24 04:03:58;;;;;;;;;;;;;;;18.09;64.42;100153.56;2255005;79;50402;-77
2022/11/24 04:07:00;;;;;;;;;;;;;;;18.05;64.47;100159.80;2257490;79;50660;-77
2022/11/24 04:10:02;;;;;;;;;;;;;;;18.05;64.61;100161.65;2227598;79;51779;-76
2022/11/24 04:13:04;;;;;;;;;;;;;;;18.01;64.67;100164.41;2223864;79;50469;-76
2022/11/24 04:16:05;;;;;;;;;;;;;;;18.00;64.79;100180.13;2255026;78;51532;-76
2022/11/24 04:19:07;;;;;;;;;;;;;;;17.96;64.84;100178.88;2196039;80;51464;-76
2022/11/24 04:22:09;;;;;;;;;;;;;;;17.96;65.04;100172.19;2185627;80;51020;-75
2022/11/24 04:25:10;;;;;;;;;;;;;;;17.93;65.54;100172.05;2185455;80;51516;-76
2022/11/24 04:28:12;;;;;;;;;;;;;;;17.90;65.63;100171.59;2216444;80;50298;-76
2022/11/24 04:31:13;;;;;;;;;;;;;;;17.87;65.49;100168.78;2185610;80;50008;-76
2022/11/24 04:34:15;;;;;;;;;;;;;;;17.95;65.43;100167.31;2161092;80;52772;-75
2022/11/24 04:37:16;;;;;;;;;;;;;;;18.01;65.13;100169.77;2243899;79;51505;-74
2022/11/24 04:40:18;;;;;;;;;;;;;;;18.05;64.89;100169.68;2247673;79;51569;-75
2022/11/24 04:43:20;;;;;;;;;;;;;;;18.08;64.59;100169.30;2247374;79;52208;-74
2022/11/24 04:46:22;;;;;;;;;;;;;;;18.08;64.52;100165.80;2220911;79;50265;-73
2022/11/24 04:49:23;;;;;;;;;;;;;;;18.05;64.59;100177.71;2223599;79;51577;-74
2022/11/24 04:52:25;;;;;;;;;;;;;;;18.03;64.64;100185.10;2216594;80;51552;-74
2022/11/24 04:55:27;;;;;;;;;;;;;;;18.00;64.67;100198.36;2216393;80;51552;-74
2022/11/24 04:58:28;;;;;;;;;;;;;;;17.99;64.83;100207.42;2185583;80;52645;-73
2022/11/24 05:01:30;;;;;;;;;;;;;;;17.97;64.91;100216.66;2185761;80;51521;-74
2022/11/24 05:04:31;;;;;;;;;;;;;;;17.96;65.07;100211.81;2185515;80;51497;-73
2022/11/24 05:07:33;;;;;;;;;;;;;;;17.93;65.18;100218.89;2216357;80;50284;-73
2022/11/24 05:10:35;;;;;;;;;;;;;;;17.87;65.46;100230.34;2185503;80;51123;-72
2022/11/24 05:13:36;;;;;;;;;;;;;;;17.86;65.16;100226.02;2204114;78;51450;-73
2022/11/24 05:16:38;;;;;;;;;;;;;;;17.91;64.95;100224.94;2255940;78;50461;-73
2022/11/24 05:19:40;;;;;;;;;;;;;;;17.97;64.80;100228.19;2223320;79;50497;-74
2022/11/24 05:22:41;;;;;;;;;;;;;;;18.01;64.65;100225.47;2223362;79;49732;-74
2022/11/24 05:25:43;;;;;;;;;;;;;;;18.04;64.36;100229.09;2254761;78;50906;-73
2022/11/24 05:28:44;;;;;;;;;;;;;;;18.05;64.29;100233.94;2254855;79;51548;-73
2022/11/24 05:31:46;;;;;;;;;;;;;;;18.03;64.38;100242.17;2254947;79;50653;-73
2022/11/24 05:34:48;;;;;;;;;;;;;;;18.02;64.28;100240.50;2197211;79;51990;-74
2022/11/24 05:37:49;;;;;;;;;;;;;;;18.00;64.40;100242.52;2230663;79;50350;-73
2022/11/24 05:40:51;;;;;;;;;;;;;;;17.96;64.37;100245.28;2230524;78;50745;-73
2022/11/24 05:43:53;;;;;;;;;;;;;;;17.93;64.46;100244.81;2237948;79;50761;-73
2022/11/24 05:46:54;;;;;;;;;;;;;;;17.91;64.42;100245.02;2235757;78;53064;-73
2022/11/24 05:49:56;;;;;;;;;;;;;;;17.88;64.37;100252.57;2246972;78;50769;-75
2022/11/24 05:52:59;;;;;;;;;;;;;;;17.87;64.30;100260.30;2246942;78;51543;-74
2022/11/24 05:56:04;;;;;;;;;;;;;;;17.92;63.95;100254.69;2277009;77;51674;-73
2022/11/24 05:59:05;;;;;;;;;;;;;;;18.00;63.62;100250.55;2246739;78;52869;-74
2022/11/24 06:02:07;;;;;;;;;;;;;;;18.04;63.39;100257.20;2277271;78;50717;-72
2022/11/24 06:05:10;;;;;;;;;;;;;;;18.08;63.39;100258.16;2247058;78;51619;-74
2022/11/24 06:08:12;;;;;;;;;;;;;;;18.10;63.73;100263.64;2247007;78;49908;-73
2022/11/24 06:11:19;;;;;;;;;;;;;;;18.11;63.98;100263.98;2277060;78;50388;-74
2022/11/24 06:14:20;;;;;;;;;;;;;;;18.13;63.94;100263.77;2231872;78;50217;-75
2022/11/24 06:17:22;;;;;;;;;;;;;;;18.13;63.98;100270.47;2254966;79;50437;-72
2022/11/24 06:20:24;;;;;;;;;;;;;;;18.16;63.96;100271.42;2254822;79;50505;-73
2022/11/24 06:23:25;;;;;;;;;;;;;;;18.22;63.95;100278.72;2254823;79;50440;-75
2022/11/24 06:26:27;;;;;;;;;;;;;;;18.26;63.80;100287.53;2198087;79;52604;-74
2022/11/24 06:29:28;;;;;;;;;;;;;;;18.32;63.68;100298.51;2222996;79;51504;-74
2022/11/24 06:32:30;;;;;;;;;;;;;;;18.38;63.43;100302.58;2254882;79;51529;-75
2022/11/24 06:35:32;;;;;;;;;;;;;;;18.46;63.26;100297.09;2254640;79;51509;-74
2022/11/24 06:38:34;;;;;;;;;;;;;;;18.53;63.09;100305.72;2222969;79;50526;-74
2022/11/24 06:41:35;;;;;;;;;;;;;;;18.61;62.89;100305.59;2222681;79;51126;-75
2022/11/24 06:44:37;;;;;;;;;;;;;;;18.68;62.68;100316.69;2229694;77;51557;-74
2022/11/24 06:47:38;;;;;;;;;;;;;;;18.76;62.45;100313.09;2223378;78;50190;-74
2022/11/24 06:50:40;;;;;;;;;;;;;;;18.84;62.21;100316.97;2197515;78;49394;-74
2022/11/24 06:53:41;;;;;;;;;;;;;;;18.91;61.95;100313.84;2222724;79;50388;-75
2022/11/24 06:56:43;;;;;;;;;;;;;;;19.02;61.74;100321.04;2247764;77;50498;-75
2022/11/24 06:59:45;;;;;;;;;;;;;;;19.10;61.58;100323.58;2300374;77;51594;-75
2022/11/24 07:02:46;;;;;;;;;;;;;;;19.19;61.32;100317.05;2205358;79;53034;-74
2022/11/24 07:05:48;;;;;;;;;;;;;;;19.30;61.00;100318.37;2207792;79;51533;-75
2022/11/24 07:08:49;;;;;;;;;;;;;;;19.36;60.81;100317.05;2253212;77;51602;-76
2022/11/24 07:11:51;;;;;;;;;;;;;;;19.43;60.61;100323.81;2257162;79;51559;-75
2022/11/24 07:14:53;;;;;;;;;;;;;;;19.53;60.19;100322.95;2201792;79;51029;-75
2022/11/24 07:17:54;;;;;;;;;;;;;;;19.61;60.05;100329.20;2247423;79;50797;-74
2022/11/24 07:20:56;;;;;;;;;;;;;;;19.68;59.72;100332.27;2255663;79;50476;-79
2022/11/24 07:23:57;;;;;;;;;;;;;;;19.74;59.42;100335.48;2256047;79;50106;-78
2022/11/24 07:26:59;;;;;;;;;;;;;;;19.82;59.16;100328.30;2211902;79;52359;-78
2022/11/24 07:30:01;;;;;;;;;;;;;;;19.84;59.01;100329.77;2204330;79;49705;-79
2022/11/24 07:33:04;;;;;;;;;;;;;;;19.88;58.83;100335.55;2265864;77;50683;-78
2022/11/24 07:36:07;;;;;;;;;;;;;;;19.97;58.57;100337.05;2256927;78;50545;-78
2022/11/24 07:39:09;;;;;;;;;;;;;;;20.00;58.38;100352.76;2223604;79;51669;-78
2022/11/24 07:42:11;;;;;;;;;;;;;;;20.06;58.20;100349.27;2256891;77;50467;-79
2022/11/24 07:45:13;;;;;;;;;;;;;;;20.09;58.05;100355.61;2226252;78;51253;-79
2022/11/24 07:48:14;;;;;;;;;;;;;;;20.12;57.94;100348.48;2263192;78;50655;-78
2022/11/24 07:51:16;;;;;;;;;;;;;;;20.19;57.72;100361.43;2224999;79;51782;-78
2022/11/24 07:54:17;;;;;;;;;;;;;;;20.22;57.55;100362.37;2225131;79;51583;-79
2022/11/24 07:57:19;;;;;;;;;;;;;;;20.27;57.42;100366.30;2257069;77;50217;-79
2022/11/24 08:00:24;;;;;;;;;;;;;;;20.27;57.26;100363.12;2224523;77;49892;-76
2022/11/24 08:03:24;;;;;;;;;;;;;;;20.31;57.12;100372.41;2269494;77;22373;-76
2022/11/24 08:06:27;;;;;;;;;;;;;;;20.34;57.00;100372.00;2269336;77;51508;-77
2022/11/24 08:09:29;;;;;;;;;;;;;;;20.39;56.75;100367.38;2261413;77;50796;-77
2022/11/24 08:12:30;;;;;;;;;;;;;;;20.42;56.64;100364.28;2208539;77;51538;-76
2022/11/24 08:15:32;;;;;;;;;;;;;;;20.42;56.54;100362.44;2229006;78;52606;-77
2022/11/24 08:18:34;;;;;;;;;;;;;;;20.46;56.43;100354.80;2265226;78;51551;-77
2022/11/24 08:21:35;;;;;;;;;;;;;;;20.51;56.32;100350.98;2254929;79;50673;-78
2022/11/24 08:24:37;;;;;;;;;;;;;;;20.54;56.21;100369.91;2254718;79;51428;-76
2022/11/24 08:27:39;;;;;;;;;;;;;;;20.59;56.04;100376.36;2198025;79;49515;-77
2022/11/24 08:30:40;;;;;;;;;;;;;;;20.62;55.92;100373.78;2223025;79;50386;-77
2022/11/24 08:33:42;;;;;;;;;;;;;;;20.64;55.81;100371.72;2254669;79;50693;-75
2022/11/24 08:36:43;;;;;;;;;;;;;;;20.68;55.69;100374.82;2254833;79;50629;-76
2022/11/24 08:39:45;;;;;;;;;;;;;;;20.70;55.59;100383.52;2197970;79;52590;-77
2022/11/24 08:42:46;;;;;;;;;;;;;;;20.73;55.46;100371.86;2222861;79;52386;-77
2022/11/24 08:45:48;;;;;;;;;;;;;;;20.74;55.47;100373.50;2258112;78;51530;-76
2022/11/24 08:48:51;;;;;;;;;;;;;;;20.77;55.45;100386.53;2223005;79;51604;-76
2022/11/24 08:51:52;;;;;;;;;;;;;;;20.80;55.44;100387.98;2223166;79;51091;-77
2022/11/24 08:54:54;;;;;;;;;;;;;;;20.82;55.45;100388.62;2222953;79;51527;-77
2022/11/24 08:57:56;;;;;;;;;;;;;;;20.86;55.39;100386.66;2254798;79;51541;-77
2022/11/24 09:01:04;;;;;;;;;;;;;;;20.88;55.56;100383.75;2254934;79;51410;-77
2022/11/24 09:04:05;;;;;;;;;;;;;;;20.92;55.65;100386.88;2222618;79;50173;-77
2022/11/24 09:07:07;;;;;;;;;;;;;;;20.90;55.78;100392.45;2252090;77;51551;-77
2022/11/24 09:10:09;;;;;;;;;;;;;;;20.97;55.67;100387.92;2255830;77;51568;-76
2022/11/24 09:13:11;;;;;;;;;;;;;;;20.99;55.66;100388.55;2257393;78;50429;-77
2022/11/24 09:16:19;;;;;;;;;;;;;;;21.00;55.70;100396.09;2255950;77;50385;-77
2022/11/24 09:19:21;;;;;;;;;;;;;;;21.01;55.71;100420.60;2230291;79;50813;-76
2022/11/24 09:22:23;;;;;;;;;;;;;;;21.03;55.63;100412.64;2222847;79;50458;-77
2022/11/24 09:25:24;;;;;;;;;;;;;;;21.06;55.59;100418.95;2197764;79;50103;-77
2022/11/24 09:28:26;;;;;;;;;;;;;;;21.10;55.45;100422.89;2222913;79;51631;-77
2022/11/24 09:31:29;;;;;;;;;;;;;;;21.10;55.44;100422.89;2294325;77;50308;-77
2022/11/24 09:34:30;;;;;;;;;;;;;;;21.14;55.37;100421.13;2284510;77;52397;-78
2022/11/24 09:37:32;;;;;;;;;;;;;;;21.16;55.30;100423.94;2300126;77;51465;-78
2022/11/24 09:40:34;;;;;;;;;;;;;;;21.18;55.26;100423.73;2269434;77;49970;-77
2022/11/24 09:43:37;;;;;;;;;;;;;;;21.21;55.21;100425.48;2277245;77;51573;-77
2022/11/24 09:46:49;;;;;;;;;;;;;;;21.20;55.21;100418.47;2240382;78;51582;-76
2022/11/24 09:50:02;;;;;;;;;;;;;;;21.24;55.11;100417.52;2232191;78;50821;-76
2022/11/24 09:53:14;;;;;;;;;;;;;;;21.15;55.47;100424.98;2247231;79;50684;-76
2022/11/24 09:56:17;;;;;;;;;;;;;;;21.13;55.72;100431.59;2246086;79;51517;-77
2022/11/24 09:59:22;;;;;;;;;;;;;;;21.15;55.69;100433.58;2247427;79;50842;-77
2022/11/24 10:02:23;;;;;;;;;;;;;;;21.25;55.32;100443.42;2248138;79;50737;-77
2022/11/24 10:05:25;;;;;;;;;;;;;;;21.26;54.75;100439.68;2222546;79;51076;-76
2022/11/24 10:08:40;;;;;;;;;;;;;;;21.04;52.55;100437.67;2254774;79;50337;-75
2022/11/24 10:11:44;;;;;;;;;;;;;;;21.03;53.18;100440.89;2254685;78;51573;-80
2022/11/24 10:14:50;;;;;;;;;;;;;;;21.06;53.61;100443.16;2221480;79;51660;-79
2022/11/24 10:17:53;;;;;;;;;;;;;;;21.04;53.96;100446.59;2221356;79;52632;-78
2022/11/24 10:20:59;;;;;;;;;;;;;;;21.09;54.05;100437.89;2254356;79;51478;-79
2022/11/24 10:24:11;;;;;;;;;;;;;;;21.07;54.20;100444.84;2254554;79;51484;-79
2022/11/24 10:27:15;;;;;;;;;;;;;;;21.09;54.26;100440.09;2254144;79;51700;-80
2022/11/24 10:30:18;;;;;;;;;;;;;;;21.08;54.39;100438.94;2221760;79;52457;-79
2022/11/24 10:33:21;;;;;;;;;;;;;;;21.07;54.45;100444.02;2234099;79;51688;-77
2022/11/24 10:36:24;;;;;;;;;;;;;;;21.15;54.35;100447.02;2216669;80;50425;-79
2022/11/24 10:39:33;;;;;;;;;;;;;;;21.17;54.38;100447.63;2242367;79;50290;-81
2022/11/24 10:42:39;;;;;;;;;;;;;;;21.15;54.37;100451.88;2221575;79;52591;-78
2022/11/24 10:45:38;;;;;;;;;;;;;;;21.12;54.41;100456.83;2223131;79;23111;-79
2022/11/24 10:48:50;;;;;;;;;;;;;;;21.16;54.38;100458.09;2246621;78;50141;-75
2022/11/24 10:51:53;;;;;;;;;;;;;;;21.18;54.21;100453.34;2254811;79;51548;-74
2022/11/24 10:54:58;;;;;;;;;;;;;;;21.20;54.04;100441.86;2254766;79;51593;-76
2022/11/24 10:58:01;;;;;;;;;;;;;;;21.24;53.75;100442.56;2255055;79;50649;-75
2022/11/24 11:01:14;;;;;;;;;;;;;;;21.27;53.62;100440.83;2252217;79;51612;-76
2022/11/24 11:04:17;;;;;;;;;;;;;;;21.31;53.43;100442.58;2254828;79;50476;-75
2022/11/24 11:07:19;;;;;;;;;;;;;;;21.33;53.31;100447.77;2222269;79;50143;-73
2022/11/24 11:10:21;;;;;;;;;;;;;;;21.31;53.27;100456.03;2228760;79;50831;-75
2022/11/24 11:13:25;;;;;;;;;;;;;;;21.32;53.16;100461.72;2256244;79;50836;-75
2022/11/24 11:16:39;;;;;;;;;;;;;;;21.37;53.22;100461.11;2257057;78;50706;-74
2022/11/24 11:19:43;;;;;;;;;;;;;;;21.37;53.16;100461.11;2255955;78;51581;-74
2022/11/24 11:22:45;;;;;;;;;;;;;;;21.36;53.12;100464.33;2255175;77;51530;-75
2022/11/24 11:25:47;;;;;;;;;;;;;;;21.37;53.08;100459.77;2258182;79;50756;-75
2022/11/24 11:28:50;;;;;;;;;;;;;;;21.38;53.04;100455.56;2255071;79;51570;-76
2022/11/24 11:32:03;;;;;;;;;;;;;;;21.34;53.09;100446.20;2204843;79;52961;-75
2022/11/24 11:35:04;;;;;;;;;;;;;;;21.38;52.94;100449.33;2223995;79;51556;-75
2022/11/24 11:38:06;;;;;;;;;;;;;;;21.36;52.97;100454.91;2259617;79;51592;-76
2022/11/24 11:41:09;;;;;;;;;;;;;;;21.37;52.95;100452.51;2255848;79;51510;-75
2022/11/24 11:44:12;;;;;;;;;;;;;;;21.39;52.88;100451.83;2221607;79;52559;-75
2022/11/24 11:47:18;;;;;;;;;;;;;;;21.36;52.96;100453.55;2258216;78;51542;-74
2022/11/24 11:50:25;;;;;;;;;;;;;;;21.41;52.83;100457.84;2252728;79;50696;-75
2022/11/24 11:53:44;;;;;;;;;;;;;;;21.41;52.71;100456.49;2247257;79;50428;-75
2022/11/24 11:56:47;;;;;;;;;;;;;;;21.41;52.72;100457.84;2214335;79;50503;-75
2022/11/24 11:59:50;;;;;;;;;;;;;;;21.44;52.62;100449.87;2250734;79;50304;-77
2022/11/24 12:03:12;;;;;;;;;;;;;;;21.44;52.63;100453.91;2254638;79;50533;-77
2022/11/24 12:06:31;;;;;;;;;;;;;;;21.44;52.67;100458.77;2247628;78;51635;-76
2022/11/24 12:09:35;;;;;;;;;;;;;;;21.50;52.56;100454.41;2225126;79;50179;-73
2022/11/24 12:12:43;;;;;;;;;;;;;;;21.51;52.61;100460.13;2250397;78;51606;-74
2022/11/24 12:15:45;;;;;;;;;;;;;;;21.52;52.61;100461.77;2245707;79;51717;-74
2022/11/24 12:18:54;;;;;;;;;;;;;;;21.53;52.53;100463.44;2247528;78;50502;-74
2022/11/24 12:22:14;;;;;;;;;;;;;;;21.55;52.53;100453.27;2258141;78;52726;-76
2022/11/24 12:25:17;;;;;;;;;;;;;;;21.56;52.57;100462.20;2258320;78;50498;-75
2022/11/24 12:28:20;;;;;;;;;;;;;;;21.59;52.53;100452.36;2258566;78;50426;-74
2022/11/24 12:31:38;;;;;;;;;;;;;;;21.63;52.44;100461.66;2256031;78;50519;-75
2022/11/24 12:34:51;;;;;;;;;;;;;;;21.66;52.31;100458.58;2204263;79;52631;-74
2022/11/24 12:37:54;;;;;;;;;;;;;;;21.68;52.40;100457.82;2237833;79;50422;-75
2022/11/24 12:40:57;;;;;;;;;;;;;;;21.67;52.45;100459.69;2240947;79;50513;-75
2022/11/24 12:43:59;;;;;;;;;;;;;;;21.66;52.48;100447.80;2240724;78;50215;-75
2022/11/24 12:47:05;;;;;;;;;;;;;;;21.68;52.42;100456.48;2216755;79;49771;-76
2022/11/24 12:50:11;;;;;;;;;;;;;;;21.70;52.36;100456.58;2239595;79;51616;-76
2022/11/24 12:53:17;;;;;;;;;;;;;;;21.75;52.26;100461.34;2240807;78;50822;-76
2022/11/24 12:56:20;;;;;;;;;;;;;;;21.71;52.36;100460.95;2241407;78;51542;-75
2022/11/24 12:59:26;;;;;;;;;;;;;;;21.73;52.34;100465.61;2218112;79;51755;-76
2022/11/24 13:02:29;;;;;;;;;;;;;;;21.75;52.30;100466.73;2240852;78;50524;-76
2022/11/24 13:05:42;;;;;;;;;;;;;;;21.75;52.28;100468.08;2240808;79;50615;-76
2022/11/24 13:08:43;;;;;;;;;;;;;;;21.77;52.24;100473.27;2241074;79;51683;-76
2022/11/24 13:11:46;;;;;;;;;;;;;;;21.67;51.31;100475.85;2217729;79;52496;-76
2022/11/24 13:14:48;;;;;;;;;;;;;;;21.73;51.56;100481.77;2239771;79;50818;-76
2022/11/24 13:17:49;;;;;;;;;;;;;;;21.75;51.67;100475.63;2240460;79;51485;-76
2022/11/24 13:20:51;;;;;;;;;;;;;;;21.82;51.61;100476.16;2240521;79;51500;-76
2022/11/24 13:24:03;;;;;;;;;;;;;;;21.87;51.56;100476.37;2217840;79;49619;-77
2022/11/24 13:27:13;;;;;;;;;;;;;;;21.86;51.65;100483.63;2218212;79;50498;-77
2022/11/24 13:30:35;;;;;;;;;;;;;;;21.86;51.82;100488.16;2240744;79;51343;-77
2022/11/24 13:33:37;;;;;;;;;;;;;;;21.86;51.80;100494.41;2240401;79;51561;-77
2022/11/24 13:36:40;;;;;;;;;;;;;;;21.84;51.83;100500.51;2193351;79;50359;-77
2022/11/24 13:39:46;;;;;;;;;;;;;;;21.85;51.77;100506.72;2238913;78;50726;-77
2022/11/24 13:43:00;;;;;;;;;;;;;;;21.89;51.75;100504.75;2240344;79;50841;-77
2022/11/24 13:46:02;;;;;;;;;;;;;;;21.90;51.63;100513.13;2240455;79;22226;-75
2022/11/24 13:49:04;;;;;;;;;;;;;;;21.88;51.80;100509.81;2231640;78;52740;-75
2022/11/24 13:52:24;;;;;;;;;;;;;;;21.81;52.15;100506.81;2248901;78;50430;-77
2022/11/24 13:55:27;;;;;;;;;;;;;;;21.84;52.12;100511.28;2269732;78;50293;-77
2022/11/24 13:58:33;;;;;;;;;;;;;;;21.85;52.17;100518.31;2204995;80;50737;-77
2022/11/24 14:01:39;;;;;;;;;;;;;;;21.85;52.17;100525.05;2181570;80;50190;-77
2022/11/24 14:04:41;;;;;;;;;;;;;;;21.87;52.08;100535.63;2204721;80;50491;-77
2022/11/24 14:07:46;;;;;;;;;;;;;;;21.82;52.08;100536.24;2183021;80;51593;-77
2022/11/24 14:10:47;;;;;;;;;;;;;;;21.75;52.22;100537.58;2204872;80;50454;-77
2022/11/24 14:13:49;;;;;;;;;;;;;;;21.64;52.39;100545.46;2206816;79;50097;-77
2022/11/24 14:17:09;;;;;;;;;;;;;;;21.55;52.59;100556.92;2234129;78;51592;-77
2022/11/24 14:20:12;;;;;;;;;;;;;;;21.43;52.86;100556.72;2248201;78;50410;-77
2022/11/24 14:23:13;;;;;;;;;;;;;;;21.36;53.05;100551.80;2261641;78;50860;-77
2022/11/24 14:26:34;;;;;;;;;;;;;;;21.35;53.09;100560.91;2233634;78;52485;-77
2022/11/24 14:29:35;;;;;;;;;;;;;;;21.41;52.95;100564.16;2265623;78;51500;-78
2022/11/24 14:32:37;;;;;;;;;;;;;;;21.42;52.98;100568.50;2265795;78;51539;-76
2022/11/24 14:35:45;;;;;;;;;;;;;;;21.45;52.82;100566.77;2265409;78;51613;-76
2022/11/24 14:38:47;;;;;;;;;;;;;;;21.44;52.84;100566.44;2233178;78;51014;-76
2022/11/24 14:41:52;;;;;;;;;;;;;;;21.50;52.71;100568.33;2234284;78;51586;-77
2022/11/24 14:44:55;;;;;;;;;;;;;;;21.53;52.61;100578.69;2265388;77;50378;-77
2022/11/24 14:47:56;;;;;;;;;;;;;;;21.54;52.54;100578.16;2241134;78;51673;-77
2022/11/24 14:51:12;;;;;;;;;;;;;;;21.55;52.54;100575.77;2198627;81;51033;-76
2022/11/24 14:54:15;;;;;;;;;;;;;;;21.52;52.59;100574.31;2197269;81;50839;-77
2022/11/24 14:57:21;;;;;;;;;;;;;;;21.56;52.50;100580.66;2197321;81;50332;-78
2022/11/24 15:00:28;;;;;;;;;;;;;;;21.58;52.46;100585.30;2197346;81;50467;-77
2022/11/24 15:03:29;;;;;;;;;;;;;;;21.57;52.46;100586.34;2174105;81;51190;-77
2022/11/24 15:06:31;;;;;;;;;;;;;;;21.59;52.40;100584.28;2175853;81;50441;-77
2022/11/24 15:09:38;;;;;;;;;;;;;;;21.57;52.44;100593.08;2197658;81;50823;-77
2022/11/24 15:12:39;;;;;;;;;;;;;;;21.61;52.37;100587.61;2197813;81;23009;-77
2022/11/24 15:15:43;;;;;;;;;;;;;;;21.59;52.38;100602.61;2185267;79;51082;-77
2022/11/24 15:18:47;;;;;;;;;;;;;;;21.61;52.30;100601.90;2249236;78;51605;-78
2022/11/24 15:21:49;;;;;;;;;;;;;;;21.61;52.33;100611.32;2241223;78;50359;-77
2022/11/24 15:24:51;;;;;;;;;;;;;;;21.68;52.19;100614.01;2218747;79;50145;-77
2022/11/24 15:27:52;;;;;;;;;;;;;;;21.68;52.17;100615.36;2218404;79;50985;-77
2022/11/24 15:30:54;;;;;;;;;;;;;;;21.67;52.16;100615.88;2218486;79;50014;-78
2022/11/24 15:33:56;;;;;;;;;;;;;;;21.68;52.13;100614.01;2240617;79;51538;-77
2022/11/24 15:36:57;;;;;;;;;;;;;;;21.72;51.98;100618.79;2240878;79;51540;-77
2022/11/24 15:39:59;;;;;;;;;;;;;;;21.75;51.93;100622.94;2218560;79;49587;-77